Detall de PIREP

Printer-friendly versionPDF version

[2014/04/05 16:18:00]
Flight IATA:CT0002
Pilot Number:012
Company ICAO:CAT
Aircraft Type:DC3/A
PAX:0
Aircraft Registration:CARGO
Departing Airport: LFMT
Destination Airport: LFML
Alternate Airport:LFMN
Online: VATSIM
Route:VFR
Flight Level:A3000
No Slew and time accel
No pause
Crash detect
Detect pilot in Cockpit between each 30 and 45 minutes
16:18 Zero fuel Weight: 20225 Lbs, Fuel Weight: 1210 Lbs
16:18 VATSIM:LFMT 051600Z 33015KT 290V030 CAVOK 23/06 Q1013 NOSIG
16:18 VATSIM:LFML 051600Z 31016KT CAVOK 20/10 Q1011 TEMPO 34020G30KT
16:18 Parking Brakes off
16:24 Take-off
16:24 Take off Weight: 21405 Lbs
16:24 Wind: 331º @ 015 Knots Heading: 308º
16:24 POS N43º 34´ 43´´ E003º 58´ 16´´
16:24 Gear Up: 108 Knots
16:39 Wind:339º@019 Knots Heading: 077º Ground Speed: 158 Knots Altitude 4140 ft
16:49 Flaps:1 at 128 Knots
16:50 Flaps:2 at 116 Knots
16:50 Flaps:3 at 101Knots
16:51 Flaps:4 at 87 Knots
16:51 Gear Down: 84 Knots
16:52 TouchDown:Rate -157 ft/min Speed: 66 Knots
16:52 VATSIM:LFML 051630Z 32018KT CAVOK 19/09 Q1011 TEMPO 34020G30KT
16:52 Land
16:52 Wind:309º@016 Knots
16:52 Heading: 310º
16:52 Flight Duration: 00:28
16:52 Landing Weight: 21124 Lbs
16:52 POS N43º 26´ 09´´ E005º 12´ 57´´
16:55 Parking brakes on
16:55 Block to Block Duration: 00:37
16:55 Final Fuel: 886 Lbls
16:55 Spent Fuel: 324 Lbls
16:55 Flight Length: 70 NM
16:55 TOD Land Length: 70 NM

Exportar CSV

Powered by Drupal - Modified by Danger4k